createdAt,value
2023-01-23T00:00:02.898Z,3.20
2023-01-23T00:02:51.376Z,4.28
2023-01-23T00:05:28.145Z,3.40
2023-01-23T00:08:08.821Z,3.55
2023-01-23T00:10:58.894Z,3.25
2023-01-23T00:13:40.158Z,2.60
2023-01-23T00:16:29.563Z,2.50
2023-01-23T00:19:09.576Z,2.25
2023-01-23T00:21:49.776Z,2.67
2023-01-23T00:24:38.574Z,3.58
2023-01-23T00:27:13.208Z,2.25
2023-01-23T00:29:46.684Z,3.13
2023-01-23T00:34:51.952Z,2.20
2023-01-23T00:37:24.736Z,1.92
2023-01-23T00:39:57.438Z,2.72
2023-01-23T00:42:29.941Z,2.55
2023-01-23T00:45:06.745Z,2.60
2023-01-23T00:47:39.330Z,3.30
2023-01-23T00:50:12.359Z,2.30
2023-01-23T00:52:45.029Z,2.40
2023-01-23T00:55:17.635Z,3.00
2023-01-23T00:57:50.205Z,2.00
2023-01-23T01:00:22.954Z,2.33
2023-01-23T01:02:55.652Z,2.40
2023-01-23T01:05:28.491Z,2.42
2023-01-23T01:08:01.431Z,2.20
2023-01-23T01:10:34.793Z,3.47
2023-01-23T01:15:40.536Z,2.05
2023-01-23T01:18:15.089Z,1.92
2023-01-23T01:20:48.451Z,2.30
2023-01-23T01:25:53.815Z,3.53
2023-01-23T01:28:28.451Z,2.22
2023-01-23T01:31:10.277Z,1.80
2023-01-23T01:33:44.144Z,3.13
2023-01-23T01:36:20.757Z,2.35
2023-01-23T01:38:53.470Z,1.98
2023-01-23T01:41:26.178Z,2.90
2023-01-23T01:44:00.414Z,1.67
2023-01-23T01:46:34.249Z,1.90
2023-01-23T01:49:20.057Z,2.17
2023-01-23T01:52:02.967Z,1.80
2023-01-23T01:54:48.892Z,2.07
2023-01-23T01:57:29.400Z,1.70
2023-01-23T02:00:10.713Z,1.98
2023-01-23T02:02:59.696Z,2.50
2023-01-23T02:05:40.030Z,1.88
2023-01-23T02:08:44.884Z,1.80
2023-01-23T02:11:18.821Z,1.50
2023-01-23T02:13:51.815Z,1.80
2023-01-23T02:16:29.882Z,1.35
2023-01-23T02:19:07.485Z,1.55
2023-01-23T02:21:43.809Z,3.70
2023-01-23T02:24:20.083Z,1.55
2023-01-23T02:26:52.777Z,1.42
2023-01-23T02:29:26.046Z,1.70
2023-01-23T02:32:01.431Z,1.40
2023-01-23T02:34:35.614Z,1.55
2023-01-23T02:37:09.095Z,2.10
2023-01-23T02:42:16.200Z,1.42
2023-01-23T02:44:56.199Z,1.38
2023-01-23T02:47:29.823Z,1.48
2023-01-23T02:50:03.548Z,1.60
2023-01-23T02:52:36.214Z,1.65
2023-01-23T02:55:10.198Z,2.85
2023-01-23T02:57:42.838Z,1.80
2023-01-23T03:00:22.989Z,1.60
2023-01-23T03:02:57.112Z,1.63
2023-01-23T03:05:31.088Z,2.08
2023-01-23T03:08:03.838Z,1.60
2023-01-23T03:10:36.855Z,1.60
2023-01-23T03:13:12.223Z,1.35
2023-01-23T03:15:45.020Z,2.20
2023-01-23T03:18:17.686Z,1.58
2023-01-23T03:20:50.359Z,1.80
2023-01-23T03:23:22.968Z,2.00
2023-01-23T03:25:58.812Z,1.50
2023-01-23T03:28:53.444Z,1.85
2023-01-23T03:31:26.132Z,1.58
2023-01-23T03:33:59.405Z,1.58
2023-01-23T03:36:37.436Z,1.65
2023-01-23T03:39:28.990Z,1.55
2023-01-23T03:42:01.539Z,1.55
2023-01-23T03:44:35.795Z,1.65
2023-01-23T03:47:08.502Z,1.48
2023-01-23T03:49:43.247Z,1.00
2023-01-23T03:52:15.939Z,1.67
2023-01-23T03:54:48.817Z,1.50
2023-01-23T03:57:21.476Z,2.40
2023-01-23T03:59:54.140Z,1.20
2023-01-23T04:02:33.506Z,1.95
2023-01-23T04:05:06.839Z,1.40
2023-01-23T04:07:39.430Z,1.05
2023-01-23T04:10:13.257Z,1.77
2023-01-23T04:12:46.847Z,1.30
2023-01-23T04:15:19.724Z,1.40
2023-01-23T04:17:52.498Z,1.35
2023-01-23T04:20:27.554Z,0.90
2023-01-23T04:23:01.529Z,1.15
2023-01-23T04:25:35.868Z,1.15
2023-01-23T04:28:09.677Z,1.33
2023-01-23T04:30:42.618Z,1.05
2023-01-23T04:33:23.941Z,2.95
2023-01-23T04:36:02.695Z,2.33
2023-01-23T04:38:42.951Z,1.10
2023-01-23T04:41:31.606Z,0.95
2023-01-23T04:44:22.958Z,2.60
2023-01-23T04:47:13.970Z,0.90
2023-01-23T04:49:46.762Z,1.10
2023-01-23T04:52:19.445Z,1.35
2023-01-23T04:54:59.412Z,1.08
2023-01-23T04:57:32.340Z,0.90
2023-01-23T05:00:29.203Z,1.23
2023-01-23T05:03:05.138Z,1.27
2023-01-23T05:05:38.138Z,1.00
2023-01-23T05:08:12.295Z,1.00
2023-01-23T05:10:46.027Z,1.08
2023-01-23T05:13:22.215Z,1.00
2023-01-23T05:15:54.862Z,0.80
2023-01-23T05:18:27.969Z,0.80
2023-01-23T05:21:01.547Z,1.05
2023-01-23T05:23:34.180Z,1.43
2023-01-23T05:26:07.359Z,0.88
2023-01-23T05:28:41.874Z,3.03
2023-01-23T05:31:14.605Z,0.93
2023-01-23T05:33:57.952Z,1.13
2023-01-23T05:36:30.568Z,0.90
2023-01-23T05:39:04.404Z,0.80
2023-01-23T05:41:37.832Z,1.25
2023-01-23T05:44:26.548Z,1.00
2023-01-23T05:47:04.955Z,1.23
2023-01-23T05:49:38.959Z,1.25
2023-01-23T05:52:11.895Z,1.15
2023-01-23T05:54:52.263Z,1.40
2023-01-23T05:57:30.132Z,1.20
2023-01-23T06:00:24.842Z,1.73
2023-01-23T06:03:30.540Z,0.90
2023-01-23T06:06:23.380Z,1.50
2023-01-23T06:09:03.539Z,1.05
2023-01-23T06:11:42.196Z,0.80
2023-01-23T06:14:23.152Z,1.50
2023-01-23T06:17:04.586Z,2.15
2023-01-23T06:19:48.580Z,2.13
2023-01-23T06:22:32.925Z,1.33
2023-01-23T06:25:28.376Z,1.02
2023-01-23T06:28:11.501Z,1.25
2023-01-23T06:30:54.350Z,2.97
2023-01-23T06:33:46.253Z,1.30
2023-01-23T06:36:24.593Z,1.30
2023-01-23T06:39:08.863Z,3.72
2023-01-23T06:41:53.558Z,1.05
2023-01-23T06:45:09.124Z,2.53
2023-01-23T06:47:47.811Z,1.00
2023-01-23T06:50:26.630Z,1.50
2023-01-23T06:53:12.419Z,2.40
2023-01-23T06:55:53.051Z,1.67
2023-01-23T06:58:34.273Z,2.15
2023-01-23T07:01:25.060Z,2.35
2023-01-23T07:04:23.898Z,3.25
2023-01-23T07:07:02.253Z,3.10
2023-01-23T07:09:44.065Z,3.97
2023-01-23T07:12:39.805Z,2.30
2023-01-23T07:15:16.913Z,2.65
2023-01-23T07:17:54.211Z,4.00
2023-01-23T07:20:35.534Z,2.97
2023-01-23T07:23:16.733Z,3.22
2023-01-23T07:26:05.839Z,3.78
2023-01-23T07:28:48.821Z,5.97
2023-01-23T07:31:34.877Z,4.15
2023-01-23T07:34:12.373Z,3.70
2023-01-23T07:36:53.432Z,5.55
2023-01-23T07:39:31.905Z,6.70
2023-01-23T07:42:09.328Z,6.00
2023-01-23T07:45:02.304Z,7.70
2023-01-23T07:47:46.372Z,13.32
2023-01-23T07:50:30.801Z,5.88
2023-01-23T07:53:22.265Z,8.18
2023-01-23T07:56:24.802Z,6.88
2023-01-23T07:59:05.510Z,9.32
2023-01-23T08:01:48.476Z,11.85
2023-01-23T08:04:31.561Z,8.35
2023-01-23T08:07:10.076Z,9.27
2023-01-23T08:09:54.021Z,12.88
2023-01-23T08:12:45.711Z,8.43
2023-01-23T08:15:32.095Z,7.30
2023-01-23T08:18:13.372Z,5.07
2023-01-23T08:21:02.014Z,7.82
2023-01-23T08:23:39.912Z,7.50
2023-01-23T08:26:18.311Z,6.38
2023-01-23T08:28:52.906Z,10.25
2023-01-23T08:31:31.158Z,6.35
2023-01-23T08:34:24.805Z,10.32
2023-01-23T08:37:08.425Z,11.32
2023-01-23T08:39:45.399Z,5.85
2023-01-23T08:42:29.606Z,3.47
2023-01-23T08:45:13.775Z,2.05
2023-01-23T08:47:57.362Z,2.75
2023-01-23T08:50:38.716Z,3.55
2023-01-23T08:53:24.124Z,1.40
2023-01-23T08:56:25.305Z,5.13
2023-01-23T08:59:07.175Z,2.38
2023-01-23T09:02:09.708Z,6.10
2023-01-23T09:04:54.594Z,1.98
2023-01-23T09:07:32.378Z,3.28
2023-01-23T09:10:16.489Z,2.38
2023-01-23T09:13:00.690Z,1.75
2023-01-23T09:15:45.082Z,2.13
2023-01-23T09:18:23.094Z,2.20
2023-01-23T09:20:56.041Z,3.47
2023-01-23T09:23:28.666Z,2.10
2023-01-23T09:26:09.732Z,3.45
2023-01-23T09:28:43.251Z,2.15
2023-01-23T09:31:15.785Z,4.22
2023-01-23T09:33:49.255Z,3.08
2023-01-23T09:36:33.723Z,3.42
2023-01-23T09:39:20.812Z,4.00
2023-01-23T09:41:59.980Z,3.85
2023-01-23T09:44:47.614Z,3.15
2023-01-23T09:47:32.126Z,3.38
2023-01-23T09:50:21.597Z,11.48
2023-01-23T09:53:28.584Z,4.30
2023-01-23T09:56:26.687Z,2.20
2023-01-23T09:59:25.131Z,2.33
2023-01-23T10:02:03.374Z,2.22
2023-01-23T10:04:46.149Z,2.15
2023-01-23T10:07:39.699Z,1.92
2023-01-23T10:10:38.609Z,1.90
2023-01-23T10:13:37.739Z,7.13
2023-01-23T10:16:51.137Z,2.95
2023-01-23T10:19:52.294Z,2.58
2023-01-23T10:23:00.294Z,2.47
2023-01-23T10:25:47.961Z,1.67
2023-01-23T10:28:47.561Z,4.45
2023-01-23T10:31:49.728Z,1.50
2023-01-23T10:34:38.329Z,2.92
2023-01-23T10:37:22.443Z,5.82
2023-01-23T10:39:59.305Z,1.58
2023-01-23T10:42:32.230Z,3.67
2023-01-23T10:45:06.098Z,2.92
2023-01-23T10:47:51.999Z,2.20
2023-01-23T10:50:39.878Z,3.40
2023-01-23T10:53:20.833Z,2.10
2023-01-23T10:55:57.493Z,4.28
2023-01-23T10:58:41.364Z,8.85
2023-01-23T11:01:27.538Z,3.22
2023-01-23T11:04:20.267Z,1.38
2023-01-23T11:07:19.160Z,1.83
2023-01-23T11:09:57.881Z,3.17
2023-01-23T11:12:49.453Z,4.97
2023-01-23T11:15:44.163Z,2.97
2023-01-23T11:18:47.412Z,3.28
2023-01-23T11:21:56.210Z,3.05
2023-01-23T11:24:53.366Z,2.83
2023-01-23T11:28:10.983Z,1.55
2023-01-23T11:31:07.913Z,2.15
2023-01-23T11:34:03.326Z,1.65
2023-01-23T11:37:05.461Z,4.13
2023-01-23T11:39:55.368Z,5.10
2023-01-23T11:42:49.460Z,3.95
2023-01-23T11:45:39.434Z,1.45
2023-01-23T11:48:24.335Z,4.72
2023-01-23T11:51:43.529Z,4.95
2023-01-23T11:54:44.713Z,1.92
2023-01-23T11:57:21.278Z,1.52
2023-01-23T12:00:03.743Z,2.20
2023-01-23T12:03:32.181Z,3.40
2023-01-23T12:06:24.318Z,1.52
2023-01-23T12:09:17.477Z,2.05
2023-01-23T12:12:35.738Z,1.02
2023-01-23T12:15:58.611Z,3.13
2023-01-23T12:22:11.882Z,2.33
2023-01-23T12:25:17.648Z,3.97
2023-01-23T12:28:37.375Z,2.78
2023-01-23T12:31:56.197Z,6.50
2023-01-23T12:35:08.671Z,4.25
2023-01-23T12:38:28.515Z,1.88
2023-01-23T12:41:36.558Z,6.28
2023-01-23T12:44:22.826Z,1.42
2023-01-23T12:47:11.271Z,2.33
2023-01-23T12:50:31.075Z,2.75
2023-01-23T12:53:24.670Z,3.58
2023-01-23T12:56:25.230Z,2.17
2023-01-23T12:59:17.328Z,1.63
2023-01-23T13:02:37.550Z,2.95
2023-01-23T13:05:39.967Z,1.92
2023-01-23T13:09:05.487Z,2.60
2023-01-23T13:12:01.026Z,2.40
2023-01-23T13:18:02.003Z,2.65
2023-01-23T13:21:18.360Z,5.22
2023-01-23T13:24:52.358Z,1.50
2023-01-23T13:28:13.277Z,2.75
2023-01-23T13:31:09.530Z,1.60
2023-01-23T13:33:47.190Z,3.08
2023-01-23T13:36:34.778Z,4.10
2023-01-23T13:39:23.770Z,2.70
2023-01-23T13:42:21.540Z,1.77
2023-01-23T13:45:28.149Z,3.15
2023-01-23T14:29:36.973Z,2.90
2023-01-23T14:32:34.473Z,2.45
2023-01-23T14:35:25.691Z,10.73
2023-01-23T14:38:13.161Z,8.98
2023-01-23T14:40:59.164Z,4.45
2023-01-23T14:44:03.306Z,5.85
2023-01-23T14:46:49.635Z,3.45
2023-01-23T14:49:44.042Z,2.35
2023-01-23T14:52:41.114Z,3.30
2023-01-23T14:55:49.355Z,5.25
2023-01-23T14:58:31.497Z,3.42
2023-01-23T15:01:09.008Z,4.80
2023-01-23T15:04:24.291Z,3.05
2023-01-23T15:07:06.159Z,7.10
2023-01-23T15:09:51.289Z,4.75
2023-01-23T15:12:31.486Z,2.78
2023-01-23T15:15:23.735Z,6.28
2023-01-23T15:18:07.927Z,6.90
2023-01-23T15:21:08.862Z,3.80
2023-01-23T15:27:12.115Z,6.57
2023-01-23T15:30:17.508Z,9.73
2023-01-23T15:32:57.994Z,4.78
2023-01-23T15:38:22.295Z,2.42
2023-01-23T15:41:04.660Z,4.82
2023-01-23T15:43:47.624Z,3.97
2023-01-23T15:46:25.600Z,2.40
2023-01-23T15:49:03.383Z,2.63
2023-01-23T15:51:44.668Z,4.47
2023-01-23T15:54:42.942Z,5.50
2023-01-23T15:57:25.735Z,3.75
2023-01-23T16:00:18.268Z,2.55
2023-01-23T16:03:05.810Z,4.47
2023-01-23T16:05:51.773Z,2.83
2023-01-23T16:08:30.033Z,5.10
2023-01-23T16:11:15.242Z,4.22
2023-01-23T16:14:03.825Z,6.53
2023-01-23T16:17:00.182Z,2.53
2023-01-23T16:19:45.424Z,10.00
2023-01-23T16:22:31.631Z,4.68
2023-01-23T16:25:28.731Z,4.07
2023-01-23T16:28:35.330Z,4.40
2023-01-23T16:31:17.357Z,8.32
2023-01-23T16:33:58.233Z,6.75
2023-01-23T16:36:41.129Z,4.95
2023-01-23T16:39:36.506Z,4.78
2023-01-23T16:42:32.654Z,8.35
2023-01-23T16:45:34.200Z,8.05
2023-01-23T16:48:26.242Z,5.93
2023-01-23T16:51:27.100Z,7.75
2023-01-23T16:54:18.273Z,8.93
2023-01-23T16:57:02.915Z,5.03
2023-01-23T16:59:44.095Z,5.20
2023-01-23T17:02:23.062Z,8.77
2023-01-23T17:04:59.343Z,8.50
2023-01-23T17:07:36.583Z,6.55
2023-01-23T17:10:27.734Z,7.18
2023-01-23T17:13:22.948Z,7.45
2023-01-23T17:16:00.426Z,10.77
2023-01-23T17:19:08.217Z,7.25
2023-01-23T17:21:46.707Z,11.38
2023-01-23T17:24:30.211Z,7.07
2023-01-23T17:27:07.512Z,7.43
2023-01-23T17:29:54.524Z,7.68
2023-01-23T17:33:04.646Z,7.45
2023-01-23T17:35:50.975Z,8.23
2023-01-23T17:38:32.419Z,6.15
2023-01-23T17:41:07.472Z,9.95
2023-01-23T17:43:44.530Z,9.48
2023-01-23T17:46:33.429Z,7.00
2023-01-23T17:49:30.372Z,5.32
2023-01-23T17:58:05.327Z,7.60
2023-01-23T18:00:48.221Z,8.02
2023-01-23T18:03:29.260Z,13.63
2023-01-23T18:06:20.694Z,11.65
2023-01-23T18:09:01.175Z,10.63
2023-01-23T18:11:40.894Z,6.82
2023-01-23T18:14:58.642Z,5.22
2023-01-23T18:18:09.340Z,6.00
2023-01-23T18:20:50.253Z,4.72
2023-01-23T18:23:36.812Z,8.75
2023-01-23T18:26:40.517Z,5.20
2023-01-23T18:29:33.616Z,3.10
2023-01-23T18:32:21.883Z,8.25
2023-01-23T18:35:18.975Z,5.45
2023-01-23T18:38:31.498Z,5.07
2023-01-23T18:41:30.036Z,7.68
2023-01-23T18:44:29.305Z,9.40
2023-01-23T18:47:18.279Z,8.80
2023-01-23T18:50:25.010Z,9.63
2023-01-23T18:53:46.285Z,8.32
2023-01-23T18:56:38.267Z,6.50
2023-01-23T18:59:35.630Z,10.27
2023-01-23T19:02:32.347Z,8.98
2023-01-23T19:05:20.637Z,9.70
2023-01-23T19:07:56.616Z,9.90
2023-01-23T19:10:47.610Z,9.57
2023-01-23T19:13:34.045Z,7.45
2023-01-23T19:16:14.635Z,9.27
2023-01-23T19:19:14.263Z,9.45
2023-01-23T19:21:58.750Z,7.80
2023-01-23T19:24:41.053Z,15.82
2023-01-23T19:27:27.860Z,9.40
2023-01-23T19:30:02.943Z,4.95
2023-01-23T19:32:37.685Z,6.28
2023-01-23T19:35:14.412Z,5.30
2023-01-23T19:37:51.478Z,5.50
2023-01-23T19:40:34.723Z,6.35
2023-01-23T19:43:18.202Z,5.05
2023-01-23T19:45:54.740Z,6.60
2023-01-23T19:48:31.459Z,5.13
2023-01-23T19:51:07.836Z,5.18
2023-01-23T19:53:46.457Z,6.03
2023-01-23T19:56:24.892Z,4.47
2023-01-23T19:59:03.465Z,5.97
2023-01-23T20:01:45.547Z,5.55
2023-01-23T20:04:27.367Z,4.95
2023-01-23T20:07:05.172Z,6.90
2023-01-23T20:09:48.001Z,6.45
2023-01-23T20:12:25.289Z,5.75
2023-01-23T20:15:03.570Z,6.30
2023-01-23T20:17:38.951Z,7.38
2023-01-23T20:20:16.540Z,6.82
2023-01-23T20:22:56.299Z,7.70
2023-01-23T20:25:36.459Z,9.15
2023-01-23T20:28:12.532Z,7.13
2023-01-23T20:30:50.142Z,6.15
2023-01-23T20:33:42.495Z,10.63
2023-01-23T20:36:23.574Z,4.57
2023-01-23T20:39:11.208Z,7.47
2023-01-23T20:41:58.217Z,6.88
2023-01-23T20:45:05.704Z,4.47
2023-01-23T20:47:51.748Z,7.95
2023-01-23T20:51:04.252Z,12.45
2023-01-23T20:53:44.292Z,6.75
2023-01-23T20:56:29.193Z,8.65
2023-01-23T20:59:28.016Z,6.90
2023-01-23T21:02:30.722Z,7.10
2023-01-23T21:05:09.115Z,8.87
2023-01-23T21:07:44.783Z,6.82
2023-01-23T21:10:27.878Z,6.68
2023-01-23T21:13:16.718Z,8.02
2023-01-23T21:16:12.819Z,6.15
2023-01-23T21:18:59.661Z,5.38
2023-01-23T21:21:42.082Z,5.03
2023-01-23T21:24:26.764Z,4.90
2023-01-23T21:27:09.141Z,3.53
2023-01-23T21:29:49.921Z,8.68
2023-01-23T21:32:23.581Z,5.53
2023-01-23T21:34:57.372Z,7.20
2023-01-23T21:37:30.098Z,6.57
2023-01-23T21:40:02.900Z,7.00
2023-01-23T21:42:35.495Z,6.60
2023-01-23T21:45:08.831Z,4.03
2023-01-23T21:50:17.818Z,2.67
2023-01-23T21:52:50.562Z,5.18
2023-01-23T21:55:23.326Z,4.63
2023-01-23T21:57:56.092Z,2.78
2023-01-23T22:00:46.899Z,4.60
2023-01-23T22:03:19.531Z,4.60
2023-01-23T22:05:57.095Z,4.35
2023-01-23T22:08:29.720Z,3.05
2023-01-23T22:11:03.924Z,4.55
2023-01-23T22:13:37.185Z,7.63
2023-01-23T22:16:11.307Z,3.42
2023-01-23T22:18:44.235Z,4.82
2023-01-23T22:21:17.041Z,6.45
2023-01-23T22:23:49.854Z,4.38
2023-01-23T22:26:22.553Z,5.35
2023-01-23T22:28:55.134Z,4.80
2023-01-23T22:31:27.961Z,4.93
2023-01-23T22:34:00.988Z,8.13
2023-01-23T22:36:38.968Z,6.35
2023-01-23T22:39:24.149Z,4.10
2023-01-23T22:42:01.011Z,6.30
2023-01-23T22:44:45.203Z,2.97
2023-01-23T22:47:22.413Z,6.25
2023-01-23T22:50:05.915Z,3.72
2023-01-23T22:52:45.139Z,5.05
2023-01-23T22:55:26.737Z,7.15
2023-01-23T22:58:14.980Z,3.42
2023-01-23T23:00:55.980Z,2.78
2023-01-23T23:03:37.440Z,2.47
2023-01-23T23:06:20.725Z,5.47
2023-01-23T23:09:01.125Z,6.43
2023-01-23T23:11:39.776Z,2.25
2023-01-23T23:14:29.875Z,2.70
2023-01-23T23:17:09.834Z,2.58
2023-01-23T23:19:49.833Z,3.67
2023-01-23T23:22:27.155Z,4.03
2023-01-23T23:25:12.800Z,3.60
2023-01-23T23:27:50.342Z,4.60
2023-01-23T23:30:40.905Z,3.97
2023-01-23T23:33:15.670Z,3.55
2023-01-23T23:35:54.627Z,2.67
2023-01-23T23:38:57.212Z,3.97
2023-01-23T23:41:36.887Z,3.17
2023-01-23T23:44:18.207Z,3.65
2023-01-23T23:46:55.809Z,3.17
2023-01-23T23:49:39.531Z,2.78
2023-01-23T23:52:22.682Z,4.28
2023-01-23T23:55:06.554Z,4.70
2023-01-23T23:57:51.355Z,3.05
